sensor_id;sensor_type;location;lat;lon;timestamp;P1;durP1;ratioP1;P2;durP2;ratioP2
9667;SDS011;4872;48.316;10.650;2022-11-25T04:52:03;6.97;;;4.37;;
9667;SDS011;4872;48.316;10.650;2022-11-25T04:54:30;7.10;;;4.77;;
9667;SDS011;4872;48.316;10.650;2022-11-25T04:56:57;4.43;;;4.00;;
9667;SDS011;4872;48.316;10.650;2022-11-25T04:59:23;6.13;;;5.30;;
9667;SDS011;4872;48.316;10.650;2022-11-25T05:02:05;5.60;;;5.00;;
9667;SDS011;4872;48.316;10.650;2022-11-25T05:04:37;5.27;;;4.77;;
9667;SDS011;4872;48.316;10.650;2022-11-25T05:07:05;5.47;;;4.30;;
9667;SDS011;4872;48.316;10.650;2022-11-25T05:09:32;5.80;;;5.20;;
9667;SDS011;4872;48.316;10.650;2022-11-25T05:11:58;8.33;;;7.53;;
9667;SDS011;4872;48.316;10.650;2022-11-25T05:14:25;8.27;;;7.40;;
9667;SDS011;4872;48.316;10.650;2022-11-25T05:16:52;10.00;;;8.37;;
9667;SDS011;4872;48.316;10.650;2022-11-25T05:19:19;6.67;;;6.03;;
9667;SDS011;4872;48.316;10.650;2022-11-25T05:21:45;7.87;;;7.13;;
9667;SDS011;4872;48.316;10.650;2022-11-25T05:24:14;7.33;;;6.57;;
9667;SDS011;4872;48.316;10.650;2022-11-25T05:26:40;5.97;;;4.83;;
9667;SDS011;4872;48.316;10.650;2022-11-25T05:29:07;7.70;;;5.00;;
9667;SDS011;4872;48.316;10.650;2022-11-25T05:31:34;5.13;;;4.50;;
9667;SDS011;4872;48.316;10.650;2022-11-25T05:34:01;5.17;;;4.50;;
9667;SDS011;4872;48.316;10.650;2022-11-25T05:36:28;5.10;;;4.60;;
9667;SDS011;4872;48.316;10.650;2022-11-25T05:38:56;3.93;;;3.60;;
9667;SDS011;4872;48.316;10.650;2022-11-25T05:41:24;4.27;;;3.60;;
9667;SDS011;4872;48.316;10.650;2022-11-25T05:43:51;3.87;;;3.53;;
9667;SDS011;4872;48.316;10.650;2022-11-25T05:46:18;5.70;;;4.10;;
9667;SDS011;4872;48.316;10.650;2022-11-25T05:48:45;4.97;;;4.37;;
9667;SDS011;4872;48.316;10.650;2022-11-25T05:51:11;4.73;;;3.83;;
9667;SDS011;4872;48.316;10.650;2022-11-25T05:53:38;8.27;;;3.70;;
9667;SDS011;4872;48.316;10.650;2022-11-25T05:56:05;4.70;;;3.80;;
9667;SDS011;4872;48.316;10.650;2022-11-25T05:58:34;4.67;;;3.63;;
9667;SDS011;4872;48.316;10.650;2022-11-25T06:01:04;5.47;;;4.17;;
9667;SDS011;4872;48.316;10.650;2022-11-25T06:03:32;5.03;;;4.30;;
9667;SDS011;4872;48.316;10.650;2022-11-25T06:05:59;6.70;;;4.37;;
9667;SDS011;4872;48.316;10.650;2022-11-25T06:08:27;4.73;;;4.07;;
9667;SDS011;4872;48.316;10.650;2022-11-25T06:10:53;7.40;;;4.33;;
9667;SDS011;4872;48.316;10.650;2022-11-25T06:13:20;5.17;;;4.33;;
9667;SDS011;4872;48.316;10.650;2022-11-25T06:15:49;6.13;;;4.50;;
9667;SDS011;4872;48.316;10.650;2022-11-25T06:18:16;6.03;;;4.20;;
9667;SDS011;4872;48.316;10.650;2022-11-25T06:20:43;4.77;;;4.23;;
9667;SDS011;4872;48.316;10.650;2022-11-25T06:23:10;4.87;;;4.27;;
9667;SDS011;4872;48.316;10.650;2022-11-25T06:25:37;6.63;;;4.80;;
9667;SDS011;4872;48.316;10.650;2022-11-25T06:28:04;4.80;;;4.40;;
9667;SDS011;4872;48.316;10.650;2022-11-25T06:30:30;5.40;;;4.90;;
9667;SDS011;4872;48.316;10.650;2022-11-25T06:32:58;6.13;;;5.53;;
9667;SDS011;4872;48.316;10.650;2022-11-25T06:35:25;6.17;;;4.90;;
9667;SDS011;4872;48.316;10.650;2022-11-25T06:37:52;5.37;;;4.87;;
9667;SDS011;4872;48.316;10.650;2022-11-25T06:40:19;5.53;;;5.03;;
9667;SDS011;4872;48.316;10.650;2022-11-25T06:42:46;8.93;;;6.00;;
9667;SDS011;4872;48.316;10.650;2022-11-25T06:45:12;7.87;;;6.03;;
9667;SDS011;4872;48.316;10.650;2022-11-25T06:47:39;10.00;;;8.03;;
9667;SDS011;4872;48.316;10.650;2022-11-25T06:50:08;14.67;;;10.97;;
9667;SDS011;4872;48.316;10.650;2022-11-25T06:52:35;12.03;;;10.30;;
9667;SDS011;4872;48.316;10.650;2022-11-25T06:55:02;14.00;;;8.70;;
9667;SDS011;4872;48.316;10.650;2022-11-25T06:57:29;12.60;;;9.47;;
9667;SDS011;4872;48.316;10.650;2022-11-25T06:59:56;16.50;;;11.57;;
9667;SDS011;4872;48.316;10.650;2022-11-25T07:02:23;16.13;;;11.13;;
9667;SDS011;4872;48.316;10.650;2022-11-25T07:04:50;14.53;;;10.40;;
9667;SDS011;4872;48.316;10.650;2022-11-25T07:07:19;14.20;;;9.97;;
9667;SDS011;4872;48.316;10.650;2022-11-25T07:09:45;12.80;;;9.60;;
9667;SDS011;4872;48.316;10.650;2022-11-25T07:12:12;10.90;;;8.07;;
9667;SDS011;4872;48.316;10.650;2022-11-25T07:14:39;12.40;;;8.43;;
9667;SDS011;4872;48.316;10.650;2022-11-25T07:17:06;11.70;;;8.57;;
9667;SDS011;4872;48.316;10.650;2022-11-25T07:19:33;9.03;;;7.03;;
9667;SDS011;4872;48.316;10.650;2022-11-25T07:22:00;11.90;;;6.97;;
9667;SDS011;4872;48.316;10.650;2022-11-25T07:24:28;8.93;;;6.63;;
9667;SDS011;4872;48.316;10.650;2022-11-25T07:26:55;8.67;;;7.00;;
9667;SDS011;4872;48.316;10.650;2022-11-25T07:29:22;8.00;;;6.40;;
9667;SDS011;4872;48.316;10.650;2022-11-25T07:31:49;8.73;;;6.53;;
9667;SDS011;4872;48.316;10.650;2022-11-25T07:34:16;7.57;;;6.60;;
9667;SDS011;4872;48.316;10.650;2022-11-25T07:36:45;8.57;;;7.00;;
9667;SDS011;4872;48.316;10.650;2022-11-25T07:39:13;10.57;;;7.90;;
9667;SDS011;4872;48.316;10.650;2022-11-25T07:41:42;13.70;;;8.50;;
9667;SDS011;4872;48.316;10.650;2022-11-25T07:44:10;13.00;;;9.77;;
9667;SDS011;4872;48.316;10.650;2022-11-25T07:46:39;20.83;;;16.10;;
9667;SDS011;4872;48.316;10.650;2022-11-25T07:49:08;21.80;;;15.40;;
9667;SDS011;4872;48.316;10.650;2022-11-25T07:51:38;13.23;;;11.60;;
9667;SDS011;4872;48.316;10.650;2022-11-25T07:54:06;10.87;;;9.07;;
9667;SDS011;4872;48.316;10.650;2022-11-25T07:56:34;10.17;;;9.17;;
9667;SDS011;4872;48.316;10.650;2022-11-25T07:59:04;12.83;;;10.70;;
9667;SDS011;4872;48.316;10.650;2022-11-25T08:01:32;11.00;;;8.60;;
9667;SDS011;4872;48.316;10.650;2022-11-25T08:03:58;18.60;;;13.90;;
9667;SDS011;4872;48.316;10.650;2022-11-25T08:06:26;15.13;;;11.53;;
9667;SDS011;4872;48.316;10.650;2022-11-25T08:08:54;18.97;;;11.57;;
9667;SDS011;4872;48.316;10.650;2022-11-25T08:11:22;13.80;;;10.40;;
9667;SDS011;4872;48.316;10.650;2022-11-25T08:13:51;13.00;;;10.93;;
9667;SDS011;4872;48.316;10.650;2022-11-25T08:16:20;13.27;;;11.10;;
9667;SDS011;4872;48.316;10.650;2022-11-25T08:18:49;12.67;;;9.40;;
9667;SDS011;4872;48.316;10.650;2022-11-25T08:21:16;11.40;;;8.93;;
9667;SDS011;4872;48.316;10.650;2022-11-25T08:23:43;12.67;;;9.53;;
9667;SDS011;4872;48.316;10.650;2022-11-25T08:26:13;12.23;;;9.67;;
9667;SDS011;4872;48.316;10.650;2022-11-25T08:28:41;12.43;;;9.23;;
9667;SDS011;4872;48.316;10.650;2022-11-25T08:31:09;10.57;;;9.47;;
9667;SDS011;4872;48.316;10.650;2022-11-25T08:33:38;8.97;;;7.93;;
9667;SDS011;4872;48.316;10.650;2022-11-25T08:36:06;11.67;;;8.20;;
9667;SDS011;4872;48.316;10.650;2022-11-25T08:38:33;12.07;;;7.77;;
9667;SDS011;4872;48.316;10.650;2022-11-25T08:41:00;10.07;;;7.53;;
9667;SDS011;4872;48.316;10.650;2022-11-25T08:43:27;9.63;;;7.30;;
9667;SDS011;4872;48.316;10.650;2022-11-25T08:45:54;10.17;;;6.80;;
9667;SDS011;4872;48.316;10.650;2022-11-25T08:48:22;7.60;;;6.03;;
9667;SDS011;4872;48.316;10.650;2022-11-25T08:50:51;6.97;;;5.93;;
9667;SDS011;4872;48.316;10.650;2022-11-25T08:53:20;8.33;;;6.10;;
9667;SDS011;4872;48.316;10.650;2022-11-25T08:55:47;8.03;;;5.93;;
9667;SDS011;4872;48.316;10.650;2022-11-25T08:58:15;6.93;;;5.37;;
9667;SDS011;4872;48.316;10.650;2022-11-25T09:00:43;9.03;;;5.97;;
9667;SDS011;4872;48.316;10.650;2022-11-25T09:03:10;8.67;;;5.83;;
9667;SDS011;4872;48.316;10.650;2022-11-25T09:05:38;6.73;;;5.10;;
9667;SDS011;4872;48.316;10.650;2022-11-25T09:08:08;5.67;;;4.70;;
9667;SDS011;4872;48.316;10.650;2022-11-25T09:10:35;6.67;;;5.00;;
9667;SDS011;4872;48.316;10.650;2022-11-25T09:13:03;6.00;;;4.87;;
9667;SDS011;4872;48.316;10.650;2022-11-25T09:15:30;6.63;;;5.10;;
9667;SDS011;4872;48.316;10.650;2022-11-25T09:17:57;4.60;;;4.13;;
9667;SDS011;4872;48.316;10.650;2022-11-25T09:20:25;7.27;;;5.10;;
9667;SDS011;4872;48.316;10.650;2022-11-25T09:22:52;5.43;;;4.90;;
9667;SDS011;4872;48.316;10.650;2022-11-25T09:25:20;7.03;;;5.20;;
9667;SDS011;4872;48.316;10.650;2022-11-25T09:27:47;6.87;;;4.93;;
9667;SDS011;4872;48.316;10.650;2022-11-25T09:30:14;7.53;;;4.97;;
9667;SDS011;4872;48.316;10.650;2022-11-25T09:32:41;6.33;;;5.27;;
9667;SDS011;4872;48.316;10.650;2022-11-25T09:35:08;4.67;;;4.27;;
9667;SDS011;4872;48.316;10.650;2022-11-25T09:37:35;7.07;;;4.90;;
9667;SDS011;4872;48.316;10.650;2022-11-25T09:40:02;7.90;;;4.73;;
9667;SDS011;4872;48.316;10.650;2022-11-25T09:42:33;7.13;;;4.73;;
9667;SDS011;4872;48.316;10.650;2022-11-25T09:45:27;5.70;;;4.17;;
9667;SDS011;4872;48.316;10.650;2022-11-25T09:48:24;5.20;;;4.30;;
9667;SDS011;4872;48.316;10.650;2022-11-25T09:51:08;5.13;;;4.63;;
9667;SDS011;4872;48.316;10.650;2022-11-25T09:53:42;8.27;;;5.33;;
9667;SDS011;4872;48.316;10.650;2022-11-25T09:56:13;6.70;;;5.53;;
9667;SDS011;4872;48.316;10.650;2022-11-25T09:58:49;8.17;;;6.17;;
9667;SDS011;4872;48.316;10.650;2022-11-25T10:01:21;7.53;;;5.83;;
9667;SDS011;4872;48.316;10.650;2022-11-25T10:03:52;6.87;;;5.67;;
9667;SDS011;4872;48.316;10.650;2022-11-25T10:06:22;5.00;;;4.10;;
9667;SDS011;4872;48.316;10.650;2022-11-25T10:08:51;4.80;;;3.80;;
9667;SDS011;4872;48.316;10.650;2022-11-25T10:11:23;4.30;;;3.83;;
9667;SDS011;4872;48.316;10.650;2022-11-25T10:14:01;5.93;;;4.20;;
9667;SDS011;4872;48.316;10.650;2022-11-25T10:16:33;6.70;;;3.80;;
9667;SDS011;4872;48.316;10.650;2022-11-25T10:19:10;3.00;;;2.70;;
9667;SDS011;4872;48.316;10.650;2022-11-25T10:21:42;4.17;;;3.67;;
9667;SDS011;4872;48.316;10.650;2022-11-25T10:24:11;4.57;;;3.33;;
9667;SDS011;4872;48.316;10.650;2022-11-25T10:26:41;3.07;;;2.77;;
9667;SDS011;4872;48.316;10.650;2022-11-25T10:29:20;4.93;;;3.07;;
9667;SDS011;4872;48.316;10.650;2022-11-25T10:31:49;2.90;;;2.70;;
9667;SDS011;4872;48.316;10.650;2022-11-25T10:34:19;3.80;;;2.63;;
9667;SDS011;4872;48.316;10.650;2022-11-25T10:36:52;3.43;;;2.70;;
9667;SDS011;4872;48.316;10.650;2022-11-25T10:39:21;3.63;;;2.20;;
9667;SDS011;4872;48.316;10.650;2022-11-25T10:41:54;2.80;;;2.23;;
9667;SDS011;4872;48.316;10.650;2022-11-25T10:44:27;2.87;;;1.90;;
9667;SDS011;4872;48.316;10.650;2022-11-25T10:46:58;2.50;;;2.30;;
9667;SDS011;4872;48.316;10.650;2022-11-25T10:49:35;2.33;;;1.90;;
9667;SDS011;4872;48.316;10.650;2022-11-25T10:52:10;3.63;;;2.17;;
9667;SDS011;4872;48.316;10.650;2022-11-25T10:54:38;3.67;;;2.10;;
9667;SDS011;4872;48.316;10.650;2022-11-25T10:57:14;3.20;;;1.80;;
9667;SDS011;4872;48.316;10.650;2022-11-25T10:59:52;3.67;;;2.47;;
9667;SDS011;4872;48.316;10.650;2022-11-25T11:02:22;4.03;;;2.40;;
9667;SDS011;4872;48.316;10.650;2022-11-25T11:04:55;5.73;;;2.70;;
9667;SDS011;4872;48.316;10.650;2022-11-25T11:07:25;4.43;;;2.50;;
9667;SDS011;4872;48.316;10.650;2022-11-25T11:09:53;5.13;;;2.07;;
9667;SDS011;4872;48.316;10.650;2022-11-25T11:12:38;3.63;;;2.47;;
9667;SDS011;4872;48.316;10.650;2022-11-25T11:15:19;3.80;;;2.17;;
9667;SDS011;4872;48.316;10.650;2022-11-25T11:17:48;4.20;;;2.00;;
9667;SDS011;4872;48.316;10.650;2022-11-25T11:20:17;2.73;;;2.13;;
9667;SDS011;4872;48.316;10.650;2022-11-25T11:22:48;4.40;;;2.53;;
9667;SDS011;4872;48.316;10.650;2022-11-25T11:25:24;4.03;;;2.70;;
9667;SDS011;4872;48.316;10.650;2022-11-25T11:27:56;5.23;;;2.80;;
9667;SDS011;4872;48.316;10.650;2022-11-25T11:30:25;3.57;;;2.10;;
9667;SDS011;4872;48.316;10.650;2022-11-25T11:32:55;3.47;;;2.70;;
9667;SDS011;4872;48.316;10.650;2022-11-25T11:35:27;3.70;;;2.30;;
9667;SDS011;4872;48.316;10.650;2022-11-25T11:38:02;3.00;;;2.27;;
9667;SDS011;4872;48.316;10.650;2022-11-25T11:40:35;2.60;;;2.27;;
9667;SDS011;4872;48.316;10.650;2022-11-25T11:43:10;3.53;;;2.40;;
9667;SDS011;4872;48.316;10.650;2022-11-25T11:46:02;5.30;;;2.60;;
9667;SDS011;4872;48.316;10.650;2022-11-25T11:48:39;4.80;;;2.10;;
9667;SDS011;4872;48.316;10.650;2022-11-25T11:51:13;6.43;;;2.87;;
9667;SDS011;4872;48.316;10.650;2022-11-25T11:53:53;3.27;;;2.33;;
9667;SDS011;4872;48.316;10.650;2022-11-25T11:56:31;3.30;;;2.33;;
9667;SDS011;4872;48.316;10.650;2022-11-25T11:59:14;4.60;;;2.77;;
9667;SDS011;4872;48.316;10.650;2022-11-25T12:01:57;2.87;;;2.20;;
9667;SDS011;4872;48.316;10.650;2022-11-25T12:04:40;6.23;;;4.47;;
9667;SDS011;4872;48.316;10.650;2022-11-25T12:07:12;10.53;;;8.57;;
9667;SDS011;4872;48.316;10.650;2022-11-25T12:09:44;4.37;;;2.83;;
9667;SDS011;4872;48.316;10.650;2022-11-25T12:12:17;11.47;;;6.73;;
9667;SDS011;4872;48.316;10.650;2022-11-25T12:14:45;4.70;;;4.10;;
9667;SDS011;4872;48.316;10.650;2022-11-25T12:17:18;7.43;;;5.17;;
9667;SDS011;4872;48.316;10.650;2022-11-25T12:19:54;20.07;;;11.47;;
9667;SDS011;4872;48.316;10.650;2022-11-25T12:22:24;21.83;;;12.90;;
9667;SDS011;4872;48.316;10.650;2022-11-25T12:24:56;26.83;;;13.40;;
9667;SDS011;4872;48.316;10.650;2022-11-25T12:27:28;16.60;;;9.33;;
9667;SDS011;4872;48.316;10.650;2022-11-25T12:30:00;9.77;;;4.87;;
9667;SDS011;4872;48.316;10.650;2022-11-25T12:32:40;5.20;;;3.50;;
9667;SDS011;4872;48.316;10.650;2022-11-25T12:35:15;3.00;;;2.20;;
9667;SDS011;4872;48.316;10.650;2022-11-25T12:37:49;4.63;;;2.00;;
9667;SDS011;4872;48.316;10.650;2022-11-25T12:40:24;4.90;;;2.13;;
9667;SDS011;4872;48.316;10.650;2022-11-25T12:42:55;3.60;;;2.03;;
9667;SDS011;4872;48.316;10.650;2022-11-25T12:45:31;3.27;;;1.87;;
9667;SDS011;4872;48.316;10.650;2022-11-25T12:48:00;3.73;;;2.03;;
9667;SDS011;4872;48.316;10.650;2022-11-25T12:50:29;3.17;;;2.23;;
9667;SDS011;4872;48.316;10.650;2022-11-25T12:53:07;3.30;;;2.30;;
9667;SDS011;4872;48.316;10.650;2022-11-25T12:55:41;4.47;;;2.80;;
9667;SDS011;4872;48.316;10.650;2022-11-25T12:58:27;3.50;;;2.60;;
9667;SDS011;4872;48.316;10.650;2022-11-25T13:01:22;7.27;;;3.00;;
9667;SDS011;4872;48.316;10.650;2022-11-25T13:12:55;3.00;;;2.10;;
9667;SDS011;4872;48.316;10.650;2022-11-25T13:15:31;5.67;;;2.77;;
9667;SDS011;4872;48.316;10.650;2022-11-25T13:18:06;3.43;;;2.20;;
9667;SDS011;4872;48.316;10.650;2022-11-25T13:20:44;5.10;;;2.33;;
9667;SDS011;4872;48.316;10.650;2022-11-25T13:23:26;6.80;;;3.50;;
9667;SDS011;4872;48.316;10.650;2022-11-25T13:32:29;6.47;;;3.37;;
9667;SDS011;4872;48.316;10.650;2022-11-25T13:37:57;13.03;;;9.67;;
9667;SDS011;4872;48.316;10.650;2022-11-25T13:40:32;13.47;;;10.43;;
9667;SDS011;4872;48.316;10.650;2022-11-25T13:43:02;26.13;;;15.23;;
9667;SDS011;4872;48.316;10.650;2022-11-25T13:45:31;20.10;;;12.20;;
9667;SDS011;4872;48.316;10.650;2022-11-25T13:48:03;16.33;;;8.70;;
9667;SDS011;4872;48.316;10.650;2022-11-25T13:50:31;8.70;;;4.80;;
9667;SDS011;4872;48.316;10.650;2022-11-25T13:53:00;8.20;;;5.50;;
9667;SDS011;4872;48.316;10.650;2022-11-25T13:55:30;10.20;;;7.10;;
9667;SDS011;4872;48.316;10.650;2022-11-25T13:58:01;11.47;;;8.77;;
9667;SDS011;4872;48.316;10.650;2022-11-25T14:00:46;10.23;;;6.60;;
9667;SDS011;4872;48.316;10.650;2022-11-25T14:09:23;6.77;;;4.73;;
9667;SDS011;4872;48.316;10.650;2022-11-25T14:12:08;8.33;;;5.10;;
9667;SDS011;4872;48.316;10.650;2022-11-25T14:14:56;15.00;;;8.67;;
9667;SDS011;4872;48.316;10.650;2022-11-25T14:17:46;13.53;;;8.60;;
9667;SDS011;4872;48.316;10.650;2022-11-25T14:20:42;13.07;;;8.37;;
9667;SDS011;4872;48.316;10.650;2022-11-25T14:26:08;6.03;;;3.63;;
9667;SDS011;4872;48.316;10.650;2022-11-25T14:28:39;11.27;;;7.57;;
9667;SDS011;4872;48.316;10.650;2022-11-25T14:31:10;15.70;;;8.30;;
9667;SDS011;4872;48.316;10.650;2022-11-25T14:33:42;18.60;;;12.80;;
9667;SDS011;4872;48.316;10.650;2022-11-25T14:36:14;17.63;;;12.13;;
9667;SDS011;4872;48.316;10.650;2022-11-25T14:38:47;21.13;;;14.27;;
9667;SDS011;4872;48.316;10.650;2022-11-25T14:41:21;17.00;;;11.27;;
9667;SDS011;4872;48.316;10.650;2022-11-25T14:43:51;12.43;;;7.80;;
9667;SDS011;4872;48.316;10.650;2022-11-25T14:46:23;9.13;;;5.03;;
9667;SDS011;4872;48.316;10.650;2022-11-25T14:48:54;7.37;;;4.40;;
9667;SDS011;4872;48.316;10.650;2022-11-25T14:51:22;5.27;;;3.30;;
9667;SDS011;4872;48.316;10.650;2022-11-25T14:53:50;7.60;;;3.80;;
9667;SDS011;4872;48.316;10.650;2022-11-25T14:56:21;7.37;;;3.47;;
9667;SDS011;4872;48.316;10.650;2022-11-25T14:58:52;5.90;;;3.20;;
9667;SDS011;4872;48.316;10.650;2022-11-25T15:01:21;7.30;;;4.07;;
9667;SDS011;4872;48.316;10.650;2022-11-25T15:03:50;8.40;;;4.93;;
9667;SDS011;4872;48.316;10.650;2022-11-25T15:06:27;8.30;;;4.63;;
9667;SDS011;4872;48.316;10.650;2022-11-25T15:08:55;8.40;;;5.33;;
9667;SDS011;4872;48.316;10.650;2022-11-25T15:11:25;7.87;;;4.80;;
9667;SDS011;4872;48.316;10.650;2022-11-25T15:13:56;9.00;;;5.57;;
9667;SDS011;4872;48.316;10.650;2022-11-25T15:16:29;6.80;;;4.67;;
9667;SDS011;4872;48.316;10.650;2022-11-25T15:18:59;6.97;;;3.93;;
9667;SDS011;4872;48.316;10.650;2022-11-25T15:21:27;6.03;;;4.00;;
9667;SDS011;4872;48.316;10.650;2022-11-25T15:23:56;5.80;;;3.80;;
9667;SDS011;4872;48.316;10.650;2022-11-25T15:26:26;7.10;;;3.50;;
9667;SDS011;4872;48.316;10.650;2022-11-25T15:28:54;7.43;;;3.47;;
9667;SDS011;4872;48.316;10.650;2022-11-25T15:31:24;5.80;;;4.17;;
9667;SDS011;4872;48.316;10.650;2022-11-25T15:33:53;7.37;;;5.83;;
9667;SDS011;4872;48.316;10.650;2022-11-25T15:36:22;4.13;;;3.73;;
9667;SDS011;4872;48.316;10.650;2022-11-25T15:38:50;5.97;;;4.17;;
9667;SDS011;4872;48.316;10.650;2022-11-25T15:41:19;6.17;;;4.20;;
9667;SDS011;4872;48.316;10.650;2022-11-25T15:43:54;7.00;;;3.87;;
9667;SDS011;4872;48.316;10.650;2022-11-25T15:46:23;5.73;;;4.27;;
9667;SDS011;4872;48.316;10.650;2022-11-25T15:48:51;7.40;;;4.17;;
9667;SDS011;4872;48.316;10.650;2022-11-25T15:51:30;8.87;;;4.60;;
9667;SDS011;4872;48.316;10.650;2022-11-25T15:54:04;6.43;;;4.70;;
9667;SDS011;4872;48.316;10.650;2022-11-25T15:56:34;8.80;;;5.20;;
9667;SDS011;4872;48.316;10.650;2022-11-25T15:59:05;7.33;;;5.60;;
9667;SDS011;4872;48.316;10.650;2022-11-25T16:05:07;18.53;;;11.03;;
9667;SDS011;4872;48.316;10.650;2022-11-25T16:07:53;25.13;;;16.90;;
9667;SDS011;4872;48.316;10.650;2022-11-25T16:10:47;36.07;;;22.87;;
9667;SDS011;4872;48.316;10.650;2022-11-25T16:13:21;23.03;;;16.33;;
9667;SDS011;4872;48.316;10.650;2022-11-25T16:15:59;12.60;;;10.53;;
9667;SDS011;4872;48.316;10.650;2022-11-25T16:18:36;10.03;;;6.70;;
9667;SDS011;4872;48.316;10.650;2022-11-25T16:21:06;13.10;;;8.83;;
9667;SDS011;4872;48.316;10.650;2022-11-25T16:23:39;14.33;;;11.70;;
9667;SDS011;4872;48.316;10.650;2022-11-25T16:26:15;9.83;;;7.80;;
9667;SDS011;4872;48.316;10.650;2022-11-25T16:28:50;11.93;;;7.80;;
9667;SDS011;4872;48.316;10.650;2022-11-25T16:31:21;13.07;;;7.53;;
9667;SDS011;4872;48.316;10.650;2022-11-25T16:33:50;13.87;;;8.40;;
9667;SDS011;4872;48.316;10.650;2022-11-25T16:36:19;12.37;;;9.60;;
9667;SDS011;4872;48.316;10.650;2022-11-25T16:38:47;10.83;;;9.50;;
9667;SDS011;4872;48.316;10.650;2022-11-25T16:41:19;14.17;;;10.77;;
9667;SDS011;4872;48.316;10.650;2022-11-25T16:43:49;15.13;;;11.40;;
9667;SDS011;4872;48.316;10.650;2022-11-25T16:46:16;14.83;;;11.10;;
9667;SDS011;4872;48.316;10.650;2022-11-25T16:48:48;15.77;;;10.77;;
9667;SDS011;4872;48.316;10.650;2022-11-25T16:51:17;15.00;;;11.00;;
9667;SDS011;4872;48.316;10.650;2022-11-25T16:53:48;15.70;;;10.53;;
9667;SDS011;4872;48.316;10.650;2022-11-25T16:56:19;12.43;;;9.67;;
9667;SDS011;4872;48.316;10.650;2022-11-25T16:58:51;14.80;;;9.47;;
9667;SDS011;4872;48.316;10.650;2022-11-25T17:01:22;15.13;;;9.30;;
9667;SDS011;4872;48.316;10.650;2022-11-25T17:03:55;14.20;;;10.67;;
9667;SDS011;4872;48.316;10.650;2022-11-25T17:06:23;13.53;;;10.37;;
9667;SDS011;4872;48.316;10.650;2022-11-25T17:08:53;12.47;;;9.53;;
9667;SDS011;4872;48.316;10.650;2022-11-25T17:11:22;12.43;;;7.90;;
9667;SDS011;4872;48.316;10.650;2022-11-25T17:13:53;14.47;;;9.33;;
9667;SDS011;4872;48.316;10.650;2022-11-25T17:16:22;15.97;;;9.07;;
9667;SDS011;4872;48.316;10.650;2022-11-25T17:18:52;11.50;;;8.10;;
9667;SDS011;4872;48.316;10.650;2022-11-25T17:21:24;10.77;;;7.60;;
9667;SDS011;4872;48.316;10.650;2022-11-25T17:23:53;13.00;;;8.23;;
9667;SDS011;4872;48.316;10.650;2022-11-25T17:26:25;17.77;;;13.53;;
9667;SDS011;4872;48.316;10.650;2022-11-25T17:29:00;16.60;;;12.10;;
9667;SDS011;4872;48.316;10.650;2022-11-25T17:31:30;16.43;;;9.93;;
9667;SDS011;4872;48.316;10.650;2022-11-25T17:34:06;16.83;;;13.70;;
9667;SDS011;4872;48.316;10.650;2022-11-25T17:36:36;18.70;;;13.03;;
9667;SDS011;4872;48.316;10.650;2022-11-25T17:39:05;14.97;;;10.90;;
9667;SDS011;4872;48.316;10.650;2022-11-25T17:41:32;14.93;;;10.20;;
9667;SDS011;4872;48.316;10.650;2022-11-25T17:43:59;13.97;;;9.63;;
9667;SDS011;4872;48.316;10.650;2022-11-25T17:46:26;15.03;;;8.57;;
9667;SDS011;4872;48.316;10.650;2022-11-25T17:48:53;15.90;;;10.63;;
9667;SDS011;4872;48.316;10.650;2022-11-25T17:51:26;10.40;;;8.53;;
9667;SDS011;4872;48.316;10.650;2022-11-25T17:53:55;13.93;;;8.33;;
9667;SDS011;4872;48.316;10.650;2022-11-25T17:56:23;15.67;;;10.00;;
9667;SDS011;4872;48.316;10.650;2022-11-25T17:58:52;13.70;;;8.70;;
9667;SDS011;4872;48.316;10.650;2022-11-25T18:01:20;13.63;;;9.00;;
9667;SDS011;4872;48.316;10.650;2022-11-25T18:03:46;13.07;;;9.07;;
9667;SDS011;4872;48.316;10.650;2022-11-25T18:06:16;11.63;;;8.13;;
9667;SDS011;4872;48.316;10.650;2022-11-25T18:08:47;9.93;;;7.87;;
9667;SDS011;4872;48.316;10.650;2022-11-25T18:11:15;12.87;;;7.80;;
9667;SDS011;4872;48.316;10.650;2022-11-25T18:13:45;13.53;;;9.03;;
9667;SDS011;4872;48.316;10.650;2022-11-25T18:16:12;12.20;;;7.63;;
9667;SDS011;4872;48.316;10.650;2022-11-25T18:18:43;11.37;;;7.50;;
9667;SDS011;4872;48.316;10.650;2022-11-25T18:21:10;14.50;;;7.97;;
9667;SDS011;4872;48.316;10.650;2022-11-25T18:23:37;11.40;;;8.13;;
9667;SDS011;4872;48.316;10.650;2022-11-25T18:26:07;14.43;;;11.13;;
9667;SDS011;4872;48.316;10.650;2022-11-25T18:28:36;12.60;;;9.03;;
9667;SDS011;4872;48.316;10.650;2022-11-25T18:31:04;10.00;;;7.13;;
9667;SDS011;4872;48.316;10.650;2022-11-25T18:33:31;11.73;;;8.03;;
9667;SDS011;4872;48.316;10.650;2022-11-25T18:35:59;13.50;;;7.00;;
9667;SDS011;4872;48.316;10.650;2022-11-25T18:38:26;11.87;;;6.50;;
9667;SDS011;4872;48.316;10.650;2022-11-25T18:40:53;15.87;;;6.03;;
9667;SDS011;4872;48.316;10.650;2022-11-25T18:43:24;7.93;;;6.10;;
9667;SDS011;4872;48.316;10.650;2022-11-25T18:46:01;11.13;;;5.80;;
9667;SDS011;4872;48.316;10.650;2022-11-25T18:48:30;13.00;;;6.17;;
9667;SDS011;4872;48.316;10.650;2022-11-25T18:50:57;13.30;;;7.87;;
9667;SDS011;4872;48.316;10.650;2022-11-25T18:53:24;21.27;;;10.90;;
9667;SDS011;4872;48.316;10.650;2022-11-25T18:55:51;11.00;;;6.57;;
9667;SDS011;4872;48.316;10.650;2022-11-25T18:58:20;14.43;;;11.13;;
9667;SDS011;4872;48.316;10.650;2022-11-25T19:00:51;11.03;;;7.57;;
9667;SDS011;4872;48.316;10.650;2022-11-25T19:03:23;13.33;;;6.83;;
9667;SDS011;4872;48.316;10.650;2022-11-25T19:05:50;12.30;;;5.67;;
9667;SDS011;4872;48.316;10.650;2022-11-25T19:08:18;10.67;;;4.80;;
9667;SDS011;4872;48.316;10.650;2022-11-25T19:10:45;6.00;;;3.97;;
9667;SDS011;4872;48.316;10.650;2022-11-25T19:13:13;6.73;;;4.87;;
9667;SDS011;4872;48.316;10.650;2022-11-25T19:15:44;8.87;;;4.77;;
9667;SDS011;4872;48.316;10.650;2022-11-25T19:18:12;11.47;;;5.83;;
9667;SDS011;4872;48.316;10.650;2022-11-25T19:20:45;12.33;;;7.23;;
9667;SDS011;4872;48.316;10.650;2022-11-25T19:23:15;11.93;;;7.87;;
9667;SDS011;4872;48.316;10.650;2022-11-25T19:25:49;14.63;;;8.60;;
9667;SDS011;4872;48.316;10.650;2022-11-25T19:28:17;10.90;;;8.63;;
9667;SDS011;4872;48.316;10.650;2022-11-25T19:30:46;15.77;;;10.50;;
9667;SDS011;4872;48.316;10.650;2022-11-25T19:33:15;13.97;;;9.70;;
9667;SDS011;4872;48.316;10.650;2022-11-25T19:35:49;12.23;;;9.93;;
9667;SDS011;4872;48.316;10.650;2022-11-25T19:38:17;10.17;;;8.37;;
9667;SDS011;4872;48.316;10.650;2022-11-25T19:40:45;11.97;;;7.77;;
9667;SDS011;4872;48.316;10.650;2022-11-25T19:43:18;11.93;;;8.43;;
9667;SDS011;4872;48.316;10.650;2022-11-25T19:45:48;10.07;;;8.33;;
9667;SDS011;4872;48.316;10.650;2022-11-25T19:48:15;16.43;;;8.43;;
9667;SDS011;4872;48.316;10.650;2022-11-25T19:50:44;10.83;;;8.00;;
9667;SDS011;4872;48.316;10.650;2022-11-25T19:53:13;10.50;;;8.03;;
9667;SDS011;4872;48.316;10.650;2022-11-25T19:55:42;11.30;;;8.27;;
9667;SDS011;4872;48.316;10.650;2022-11-25T19:58:09;12.60;;;7.97;;
9667;SDS011;4872;48.316;10.650;2022-11-25T20:00:37;9.93;;;7.67;;
9667;SDS011;4872;48.316;10.650;2022-11-25T20:03:08;9.47;;;6.87;;
9667;SDS011;4872;48.316;10.650;2022-11-25T20:05:41;11.13;;;6.77;;
9667;SDS011;4872;48.316;10.650;2022-11-25T20:08:09;9.80;;;6.43;;
9667;SDS011;4872;48.316;10.650;2022-11-25T20:10:41;14.80;;;9.10;;
9667;SDS011;4872;48.316;10.650;2022-11-25T20:13:09;8.67;;;6.07;;
9667;SDS011;4872;48.316;10.650;2022-11-25T20:15:36;11.80;;;6.27;;
9667;SDS011;4872;48.316;10.650;2022-11-25T20:18:05;9.13;;;6.33;;
9667;SDS011;4872;48.316;10.650;2022-11-25T20:20:34;13.57;;;7.03;;
9667;SDS011;4872;48.316;10.650;2022-11-25T20:23:03;10.80;;;5.43;;
9667;SDS011;4872;48.316;10.650;2022-11-25T20:25:32;11.13;;;5.10;;
9667;SDS011;4872;48.316;10.650;2022-11-25T20:28:08;10.73;;;5.23;;
9667;SDS011;4872;48.316;10.650;2022-11-25T20:30:41;6.80;;;4.70;;
9667;SDS011;4872;48.316;10.650;2022-11-25T20:33:09;9.03;;;5.27;;
9667;SDS011;4872;48.316;10.650;2022-11-25T20:35:36;9.63;;;5.97;;